Time;durP1;ratioP1;P1;durP2;ratioP2;P2;SDS_P1;SDS_P2;PMS_P1;PMS_P2;Temp;Humidity;BMP_temperature;BMP_pressure;BME280_temperature;BME280_humidity;BME280_pressure;Samples;Min_cycle;Max_cycle;Signal;HPM_P1;HPM_P2
2022/08/03 00:01:25;;;;;;;8.52;2.30;;;19.50;99.90;;;;;;5018139;28;20092;-90
2022/08/03 00:03:51;;;;;;;7.43;2.20;;;19.50;99.90;;;;;;5018278;28;20060;-90
2022/08/03 00:06:17;;;;;;;6.40;2.33;;;19.60;99.90;;;;;;5017771;28;20056;-92
2022/08/03 00:08:42;;;;;;;4.88;2.10;;;19.60;99.90;;;;;;5018921;28;20084;-92
2022/08/03 00:11:08;;;;;;;7.35;2.63;;;19.60;99.90;;;;;;5002340;28;20053;-90
2022/08/03 00:13:34;;;;;;;7.63;2.40;;;19.60;99.90;;;;;;5002019;28;20046;-92
2022/08/03 00:15:59;;;;;;;4.50;2.15;;;19.60;99.90;;;;;;5002438;28;20049;-90
2022/08/03 00:18:25;;;;;;;6.32;2.50;;;19.60;99.90;;;;;;5018050;28;20080;-91
2022/08/03 00:20:51;;;;;;;4.72;2.25;;;19.60;99.90;;;;;;5035841;28;20540;-91
2022/08/03 00:23:16;;;;;;;6.72;2.33;;;19.50;99.90;;;;;;5007296;28;20106;-91
2022/08/03 00:25:42;;;;;;;6.05;2.22;;;19.50;99.90;;;;;;5042856;28;20073;-90
2022/08/03 00:28:08;;;;;;;3.55;1.92;;;19.50;99.90;;;;;;5012679;28;20045;-91
2022/08/03 00:30:33;;;;;;;9.18;2.25;;;19.50;99.90;;;;;;5030374;28;20045;-91
2022/08/03 00:32:59;;;;;;;4.68;2.10;;;19.50;99.90;;;;;;5029202;28;20602;-91
2022/08/03 00:35:25;;;;;;;4.60;2.20;;;19.40;99.90;;;;;;5031177;28;20120;-91
2022/08/03 00:37:50;;;;;;;9.63;1.95;;;19.40;99.90;;;;;;5031460;28;20104;-92
2022/08/03 00:40:17;;;;;;;5.03;1.95;;;19.40;99.90;;;;;;5056025;28;20045;-90
2022/08/03 00:42:46;;;;;;;6.82;2.28;;;19.40;99.90;;;;;;5040883;28;20109;-90
2022/08/03 00:45:12;;;;;;;5.63;2.28;;;19.40;99.90;;;;;;5041625;28;20057;-91
2022/08/03 00:47:38;;;;;;;3.50;1.45;;;19.40;99.90;;;;;;5040967;28;20045;-91
2022/08/03 00:50:04;;;;;;;4.78;1.77;;;19.40;99.90;;;;;;5057127;28;20025;-88
2022/08/03 00:52:29;;;;;;;7.22;1.75;;;19.40;99.90;;;;;;5019078;28;20046;-90
2022/08/03 00:54:55;;;;;;;4.00;1.73;;;19.40;99.90;;;;;;5034593;28;20121;-91
2022/08/03 00:57:20;;;;;;;5.57;1.92;;;19.50;99.90;;;;;;5010852;28;20505;-92
2022/08/03 00:59:46;;;;;;;3.88;1.60;;;19.50;99.90;;;;;;5025257;28;20508;-88
2022/08/03 01:02:12;;;;;;;8.02;2.10;;;19.50;99.90;;;;;;5025144;28;20057;-91
2022/08/03 01:04:37;;;;;;;7.13;1.75;;;19.60;99.90;;;;;;5012399;28;20050;-90
2022/08/03 01:07:30;;;;;;;5.05;1.70;;;19.60;99.90;;;;;;5044893;28;20049;-90
2022/08/03 01:10:02;;;;;;;6.90;2.20;;;19.60;99.90;;;;;;5026142;28;20057;-91
2022/08/03 01:12:34;;;;;;;3.17;1.40;;;19.60;99.90;;;;;;5027805;28;20169;-90
2022/08/03 01:15:05;;;;;;;5.38;1.30;;;19.50;99.90;;;;;;5004880;28;20042;-89
2022/08/03 01:17:52;;;;;;;4.38;1.40;;;19.50;99.90;;;;;;5036033;28;20041;-89
2022/08/03 01:20:18;;;;;;;7.05;1.73;;;19.50;99.90;;;;;;5021367;28;20103;-89
2022/08/03 01:22:49;;;;;;;4.43;1.77;;;19.50;99.90;;;;;;5036687;28;20037;-90
2022/08/03 01:25:27;;;;;;;2.63;1.52;;;19.50;99.90;;;;;;5051871;28;20132;-88
2022/08/03 01:28:14;;;;;;;7.30;1.95;;;19.50;99.90;;;;;;5050778;28;20152;-91
2022/08/03 01:30:41;;;;;;;5.68;1.90;;;19.40;99.90;;;;;;5048535;28;20037;-92
2022/08/03 01:33:14;;;;;;;3.78;1.75;;;19.40;99.90;;;;;;5033181;28;20068;-92
2022/08/03 01:35:56;;;;;;;4.90;1.60;;;19.40;99.90;;;;;;5034482;28;20056;-91
2022/08/03 01:38:33;;;;;;;5.95;1.45;;;19.40;99.90;;;;;;5015221;28;20056;-92
2022/08/03 01:41:11;;;;;;;2.95;1.50;;;19.30;99.90;;;;;;5017087;28;20045;-91
2022/08/03 01:43:36;;;;;;;5.18;1.80;;;19.30;99.90;;;;;;5018914;28;20057;-92
2022/08/03 01:46:02;;;;;;;5.63;1.75;;;19.30;99.90;;;;;;5001948;28;20523;-92
2022/08/03 01:48:28;;;;;;;4.68;1.63;;;18.20;99.90;;;;;;5024260;28;20041;-91
2022/08/03 01:50:54;;;;;;;3.80;1.65;;;19.20;99.90;;;;;;5024270;28;20052;-91
2022/08/03 01:53:19;;;;;;;4.65;2.10;;;19.10;99.90;;;;;;5005867;28;20481;-92
2022/08/03 01:55:46;;;;;;;5.70;1.80;;;19.10;99.90;;;;;;5014877;28;20049;-91
2022/08/03 01:58:13;;;;;;;3.55;1.85;;;19.00;99.90;;;;;;5015067;28;20045;-91
2022/08/03 02:00:39;;;;;;;6.47;2.20;;;19.00;99.90;;;;;;4998269;28;20553;-91
2022/08/03 02:03:05;;;;;;;7.57;1.90;;;18.90;99.90;;;;;;4997920;28;20136;-92
2022/08/03 02:05:31;;;;;;;5.32;1.80;;;18.80;99.90;;;;;;5014281;28;20124;-92
2022/08/03 02:07:57;;;;;;;7.15;2.10;;;18.80;99.90;;;;;;5014976;28;20083;-92
2022/08/03 02:10:22;;;;;;;5.90;2.10;;;18.80;99.90;;;;;;4981900;28;20048;-93
2022/08/03 02:12:48;;;;;;;4.60;1.98;;;18.70;99.90;;;;;;4982053;28;20129;-93
2022/08/03 02:15:17;;;;;;;4.97;2.10;;;18.80;99.90;;;;;;4998187;28;20041;-91
2022/08/03 02:17:43;;;;;;;5.38;2.20;;;18.70;99.90;;;;;;4998364;28;20140;-92
2022/08/03 02:20:10;;;;;;;7.13;2.33;;;18.60;99.90;;;;;;4982245;28;20061;-91
2022/08/03 02:22:38;;;;;;;5.97;2.85;;;18.60;99.90;;;;;;4997375;28;20513;-92
2022/08/03 02:25:03;;;;;;;6.97;2.50;;;18.60;99.90;;;;;;4981937;28;20057;-90
2022/08/03 02:27:29;;;;;;;7.88;2.78;;;18.60;99.90;;;;;;4997126;28;20533;-89
2022/08/03 02:30:04;;;;;;;6.70;2.70;;;18.60;99.90;;;;;;5013365;28;20073;-90
2022/08/03 02:32:39;;;;;;;11.73;2.95;;;18.60;99.90;;;;;;4996549;28;20111;-89
2022/08/03 02:35:06;;;;;;;7.03;2.80;;;18.60;99.90;;;;;;5013638;28;20053;-92
2022/08/03 02:37:33;;;;;;;5.80;2.60;;;18.60;99.90;;;;;;4997523;28;20054;-91
2022/08/03 02:40:04;;;;;;;6.35;2.90;;;18.60;99.90;;;;;;5013983;28;20056;-92
2022/08/03 02:42:31;;;;;;;7.60;2.90;;;18.60;99.90;;;;;;4997118;28;20057;-89
2022/08/03 02:44:58;;;;;;;6.45;2.90;;;18.60;99.90;;;;;;4996830;28;20398;-91
2022/08/03 02:47:24;;;;;;;4.35;2.47;;;18.50;99.90;;;;;;4996845;28;20080;-91
2022/08/03 02:49:50;;;;;;;5.43;2.40;;;18.50;99.90;;;;;;4997420;28;20049;-93
2022/08/03 02:52:15;;;;;;;8.13;3.13;;;18.60;99.90;;;;;;4981364;28;20115;-91
2022/08/03 02:54:41;;;;;;;7.00;3.60;;;18.60;99.90;;;;;;4996794;28;20053;-89
2022/08/03 02:57:07;;;;;;;7.60;2.67;;;18.60;99.90;;;;;;5001038;28;20048;-89
2022/08/03 02:59:32;;;;;;;8.52;3.05;;;18.60;99.90;;;;;;5016612;28;20132;-89
2022/08/03 03:01:59;;;;;;;8.80;3.00;;;18.60;99.90;;;;;;5016871;28;20371;-89
2022/08/03 03:04:25;;;;;;;5.50;2.72;;;18.60;99.90;;;;;;5016403;28;20054;-89
2022/08/03 03:06:50;;;;;;;7.50;2.55;;;18.50;99.90;;;;;;5017607;28;20416;-90
2022/08/03 03:09:16;;;;;;;8.27;2.90;;;18.50;99.90;;;;;;5017475;28;20049;-90
2022/08/03 03:11:42;;;;;;;7.70;3.70;;;18.50;99.90;;;;;;5033454;28;20182;-90
2022/08/03 03:14:08;;;;;;;5.97;2.90;;;18.50;99.90;;;;;;5016983;28;20103;-90
2022/08/03 03:16:34;;;;;;;5.13;2.53;;;18.50;99.90;;;;;;4999650;28;20041;-90
2022/08/03 03:18:59;;;;;;;3.40;2.53;;;18.40;99.90;;;;;;5000953;28;20107;-91
2022/08/03 03:21:25;;;;;;;6.90;3.00;;;18.40;99.90;;;;;;4984225;28;20048;-88
2022/08/03 03:23:50;;;;;;;7.18;2.83;;;18.40;99.90;;;;;;4984662;28;20048;-91
2022/08/03 03:26:16;;;;;;;7.88;2.90;;;18.40;99.90;;;;;;4996914;28;20050;-92
2022/08/03 03:28:42;;;;;;;7.03;2.63;;;18.40;99.90;;;;;;5000511;28;20049;-91
2022/08/03 03:31:07;;;;;;;8.13;3.05;;;18.40;99.90;;;;;;4984843;28;20049;-89
2022/08/03 03:33:34;;;;;;;6.60;3.00;;;18.40;99.90;;;;;;5016093;28;20037;-90
2022/08/03 03:35:59;;;;;;;7.22;2.80;;;18.30;99.90;;;;;;5000047;28;20568;-89
2022/08/03 03:38:25;;;;;;;8.48;3.40;;;18.30;99.90;;;;;;5016705;28;20050;-91
2022/08/03 03:40:51;;;;;;;5.55;2.70;;;18.30;99.90;;;;;;5033249;28;20068;-91
2022/08/03 03:43:19;;;;;;;5.82;2.90;;;18.30;99.90;;;;;;5016858;28;20053;-90
2022/08/03 03:45:45;;;;;;;8.85;3.22;;;18.30;99.90;;;;;;5016545;28;20041;-92
2022/08/03 03:48:11;;;;;;;6.35;3.15;;;18.30;99.90;;;;;;5016809;28;20061;-91
2022/08/03 03:50:39;;;;;;;8.90;3.60;;;18.30;99.90;;;;;;5016447;28;20045;-91
2022/08/03 03:53:07;;;;;;;5.82;3.38;;;18.30;99.90;;;;;;5016900;28;20482;-91
2022/08/03 03:55:33;;;;;;;5.07;3.13;;;18.30;99.90;;;;;;5016532;28;20059;-91
2022/08/03 03:57:58;;;;;;;6.05;3.58;;;18.20;99.90;;;;;;4983717;28;20042;-89
2022/08/03 04:00:24;;;;;;;7.28;3.63;;;18.20;99.90;;;;;;5016858;28;20243;-90
2022/08/03 04:02:50;;;;;;;7.40;3.47;;;18.30;99.90;;;;;;5032074;28;20053;-90
2022/08/03 04:11:19;;;;;;;10.13;3.45;;;18.20;99.90;;;;;;4991407;28;20053;-91
2022/08/03 04:13:48;;;;;;;8.77;3.17;;;18.20;99.90;;;;;;4967819;28;20045;-90
2022/08/03 04:16:15;;;;;;;10.02;3.35;;;18.20;99.90;;;;;;5032301;28;20045;-91
2022/08/03 04:18:41;;;;;;;6.28;3.40;;;18.30;99.90;;;;;;4982366;28;20049;-90
2022/08/03 04:21:09;;;;;;;8.32;3.47;;;18.30;99.90;;;;;;5015750;28;20488;-90
2022/08/03 04:23:36;;;;;;;8.95;3.92;;;18.30;99.90;;;;;;5015619;28;20050;-89
2022/08/03 04:26:02;;;;;;;7.05;3.20;;;18.30;99.90;;;;;;4999590;28;20567;-90
2022/08/03 04:28:28;;;;;;;5.47;3.42;;;18.30;99.90;;;;;;4998634;28;20048;-89
2022/08/03 04:30:54;;;;;;;8.32;3.45;;;18.40;99.90;;;;;;4982251;28;20668;-90
2022/08/03 04:33:19;;;;;;;8.13;2.95;;;18.40;99.90;;;;;;5015676;28;20052;-91
2022/08/03 04:35:45;;;;;;;7.40;3.13;;;18.40;99.90;;;;;;4999072;28;20371;-90
2022/08/03 04:38:12;;;;;;;13.70;3.80;;;18.50;99.90;;;;;;5015759;28;20114;-89
2022/08/03 04:40:40;;;;;;;7.45;3.50;;;18.50;99.90;;;;;;4969675;28;20052;-89
2022/08/03 04:43:06;;;;;;;7.78;3.17;;;18.70;99.90;;;;;;5021451;28;20083;-88
2022/08/03 04:45:32;;;;;;;8.20;3.40;;;19.00;99.90;;;;;;5019879;28;20057;-89
2022/08/03 04:47:57;;;;;;;8.98;3.05;;;19.40;99.90;;;;;;5003374;28;20042;-91
2022/08/03 04:50:23;;;;;;;8.60;2.70;;;19.70;99.90;;;;;;4998895;28;20041;-91
2022/08/03 04:52:49;;;;;;;4.88;2.60;;;20.20;99.90;;;;;;5014661;28;20038;-90
2022/08/03 04:55:28;;;;;;;12.63;2.78;;;20.70;99.90;;;;;;5017098;28;20105;-91
2022/08/03 04:57:53;;;;;;;8.05;2.70;;;21.30;99.90;;;;;;4990927;28;20055;-89
2022/08/03 05:00:19;;;;;;;3.75;2.30;;;21.50;99.90;;;;;;5024064;28;20101;-91
2022/08/03 05:02:45;;;;;;;8.63;2.60;;;21.70;99.90;;;;;;5034938;28;20059;-90
2022/08/03 05:05:11;;;;;;;6.00;2.83;;;22.10;99.90;;;;;;5022990;28;20072;-91
2022/08/03 05:07:36;;;;;;;6.57;2.45;;;22.40;99.90;;;;;;5044448;28;20111;-91
2022/08/03 05:10:06;;;;;;;7.47;2.50;;;22.60;99.90;;;;;;5017187;28;20083;-90
2022/08/03 05:12:32;;;;;;;7.93;2.40;;;23.10;99.90;;;;;;5014740;28;20140;-91
2022/08/03 05:14:58;;;;;;;6.53;2.50;;;23.10;99.90;;;;;;4997811;28;20175;-93
2022/08/03 05:17:23;;;;;;;5.85;2.60;;;23.70;99.90;;;;;;5031297;28;20092;-90
2022/08/03 05:19:49;;;;;;;4.65;2.28;;;23.70;99.90;;;;;;4998572;28;20048;-92
2022/08/03 05:22:15;;;;;;;5.20;2.55;;;24.10;99.90;;;;;;5032099;28;20038;-94
2022/08/03 05:24:40;;;;;;;7.45;2.70;;;24.00;99.90;;;;;;5032148;28;20091;-89
2022/08/03 05:27:06;;;;;;;5.80;2.65;;;24.20;99.90;;;;;;5017944;28;20148;-92
2022/08/03 05:29:31;;;;;;;11.18;2.35;;;24.60;99.90;;;;;;4998924;28;20045;-93
2022/08/03 05:31:57;;;;;;;7.63;2.35;;;24.50;99.90;;;;;;5013983;28;20052;-92
2022/08/03 05:34:23;;;;;;;9.95;2.88;;;24.60;99.90;;;;;;4965717;28;20072;-92
2022/08/03 05:36:48;;;;;;;4.25;2.05;;;24.90;99.90;;;;;;5030092;28;20042;-90
2022/08/03 05:39:14;;;;;;;7.88;2.53;;;25.50;99.90;;;;;;5014545;28;20085;-91
2022/08/03 05:41:40;;;;;;;6.90;2.50;;;25.40;99.90;;;;;;4998003;28;20049;-91
2022/08/03 05:44:05;;;;;;;5.20;2.05;;;25.30;99.90;;;;;;5013581;28;20076;-89
2022/08/03 05:46:31;;;;;;;7.60;2.58;;;25.60;99.90;;;;;;5014277;28;20448;-92
2022/08/03 05:48:57;;;;;;;9.65;2.47;;;25.50;99.90;;;;;;4997310;28;20466;-92
2022/08/03 05:51:22;;;;;;;6.20;2.28;;;25.40;99.90;;;;;;5014049;28;20045;-92
2022/08/03 05:53:48;;;;;;;7.50;2.50;;;25.50;99.90;;;;;;5012788;28;20063;-91
2022/08/03 05:56:14;;;;;;;5.25;2.28;;;25.80;99.90;;;;;;5030381;28;20099;-91
2022/08/03 05:58:39;;;;;;;8.35;2.58;;;25.90;99.90;;;;;;5013917;28;20045;-91
2022/08/03 06:01:05;;;;;;;4.90;2.40;;;25.90;99.90;;;;;;5030074;28;20523;-92
2022/08/03 06:03:30;;;;;;;5.55;1.95;;;25.80;99.90;;;;;;4997184;28;20053;-89
2022/08/03 06:05:57;;;;;;;6.15;2.60;;;25.20;99.90;;;;;;5013234;28;20367;-92
2022/08/03 06:08:25;;;;;;;5.80;2.78;;;24.80;99.90;;;;;;5014273;28;20480;-93
2022/08/03 06:10:50;;;;;;;6.75;2.50;;;25.20;99.90;;;;;;5014819;28;20048;-93
2022/08/03 06:13:16;;;;;;;8.63;2.40;;;25.70;99.90;;;;;;5013967;28;20041;-92
2022/08/03 06:15:42;;;;;;;7.30;2.30;;;25.80;99.90;;;;;;5030202;28;20084;-94
2022/08/03 06:18:07;;;;;;;4.82;2.33;;;26.10;99.90;;;;;;5030000;28;20045;-93
2022/08/03 06:20:33;;;;;;;7.00;2.30;;;26.30;99.90;;;;;;5031139;28;20053;-93
2022/08/03 06:22:59;;;;;;;8.55;2.47;;;26.30;99.90;;;;;;5013455;28;20049;-93
2022/08/03 06:25:25;;;;;;;8.70;3.13;;;26.70;99.90;;;;;;5029748;28;20050;-92
2022/08/03 06:27:51;;;;;;;4.78;2.15;;;26.70;99.90;;;;;;5030411;28;20046;-90
2022/08/03 06:30:17;;;;;;;6.40;1.92;;;26.60;99.90;;;;;;5013631;28;20064;-91
2022/08/03 06:32:43;;;;;;;9.93;2.53;;;26.60;99.90;;;;;;5013821;28;20716;-94
2022/08/03 06:35:09;;;;;;;7.18;2.25;;;26.60;99.90;;;;;;5028467;28;20076;-89
2022/08/03 06:37:45;;;;;;;7.88;2.33;;;26.20;99.90;;;;;;5014559;28;20060;-92
2022/08/03 06:40:15;;;;;;;7.22;2.60;;;25.80;99.90;;;;;;5013900;28;20041;-93
2022/08/03 06:42:41;;;;;;;6.53;2.30;;;26.20;99.90;;;;;;5013548;28;20092;-92
2022/08/03 06:45:10;;;;;;;7.07;2.28;;;26.50;99.90;;;;;;5012374;28;20134;-91
2022/08/03 06:47:36;;;;;;;12.75;2.95;;;26.60;99.90;;;;;;5029634;28;20128;-90
2022/08/03 06:50:03;;;;;;;8.07;2.40;;;26.10;99.90;;;;;;4980202;28;20046;-94
2022/08/03 06:52:29;;;;;;;8.90;2.60;;;26.30;99.90;;;;;;5029900;28;20057;-92
2022/08/03 06:54:54;;;;;;;9.80;2.95;;;26.00;99.90;;;;;;5029563;28;20389;-89
2022/08/03 06:57:20;;;;;;;13.85;2.55;;;25.80;99.90;;;;;;4996522;28;20049;-92
2022/08/03 06:59:46;;;;;;;6.68;2.20;;;26.40;99.90;;;;;;5013124;28;20042;-91
2022/08/03 07:02:12;;;;;;;9.65;2.70;;;26.50;99.90;;;;;;5011884;28;20060;-90
2022/08/03 07:04:37;;;;;;;7.28;2.58;;;26.40;99.90;;;;;;4981003;28;20049;-94
2022/08/03 07:07:03;;;;;;;5.85;2.65;;;26.50;99.90;;;;;;5012338;28;20061;-93
2022/08/03 07:09:28;;;;;;;7.57;2.80;;;26.10;99.90;;;;;;5029778;28;20046;-91
2022/08/03 07:11:55;;;;;;;12.65;2.40;;;25.80;99.90;;;;;;5013016;28;20057;-92
2022/08/03 07:14:21;;;;;;;8.48;3.00;;;26.10;99.90;;;;;;5012955;28;20042;-92
2022/08/03 07:16:47;;;;;;;10.20;2.42;;;26.30;99.90;;;;;;5012977;28;20056;-92
2022/08/03 07:19:13;;;;;;;8.00;2.50;;;26.50;99.90;;;;;;4996211;28;20049;-93
2022/08/03 07:21:39;;;;;;;7.88;2.58;;;26.00;99.90;;;;;;4982363;28;20060;-92
2022/08/03 07:24:05;;;;;;;10.82;2.63;;;26.50;99.90;;;;;;5029039;28;20413;-91
2022/08/03 07:26:30;;;;;;;6.25;2.42;;;27.10;99.90;;;;;;4981487;28;20053;-92
2022/08/03 07:28:56;;;;;;;8.68;2.58;;;26.90;99.90;;;;;;5012646;28;20513;-91
2022/08/03 07:31:22;;;;;;;5.82;2.40;;;26.80;99.90;;;;;;4980131;28;20054;-91
2022/08/03 07:33:47;;;;;;;7.55;3.22;;;27.80;99.90;;;;;;5012869;28;20041;-92
2022/08/03 07:36:13;;;;;;;6.72;2.60;;;27.40;99.90;;;;;;5012853;28;20046;-93
2022/08/03 07:38:38;;;;;;;5.45;2.13;;;27.80;99.90;;;;;;5028860;28;20393;-92
2022/08/03 07:41:04;;;;;;;9.20;2.60;;;28.70;99.90;;;;;;5029225;28;20477;-91
2022/08/03 07:43:30;;;;;;;9.30;2.30;;;28.70;99.90;;;;;;5016432;28;20132;-93
2022/08/03 07:45:55;;;;;;;6.68;2.78;;;27.80;99.90;;;;;;5016259;28;20068;-91
2022/08/03 07:48:21;;;;;;;9.82;2.58;;;28.20;99.90;;;;;;4998185;28;20073;-93
2022/08/03 07:50:47;;;;;;;9.27;2.60;;;28.90;99.90;;;;;;5031467;28;20041;-90
2022/08/03 07:53:13;;;;;;;12.68;2.42;;;29.10;99.90;;;;;;5013977;28;20041;-90
2022/08/03 07:55:38;;;;;;;12.00;2.50;;;29.10;99.90;;;;;;5008432;28;20123;-90
2022/08/03 07:58:06;;;;;;;5.40;2.22;;;29.30;99.90;;;;;;4992056;28;20493;-90
2022/08/03 08:00:32;;;;;;;9.35;2.70;;;29.30;99.90;;;;;;4988215;28;20045;-91
2022/08/03 08:02:58;;;;;;;7.03;2.40;;;28.90;99.90;;;;;;4981396;28;20057;-92
2022/08/03 08:05:26;;;;;;;10.40;2.67;;;29.30;99.90;;;;;;5012622;28;20041;-95
2022/08/03 08:07:52;;;;;;;6.53;1.90;;;29.70;99.90;;;;;;5009955;28;20044;-90
2022/08/03 08:10:18;;;;;;;8.48;1.95;;;29.60;99.90;;;;;;4991552;28;20050;-90
2022/08/03 08:12:44;;;;;;;5.80;2.85;;;29.90;99.90;;;;;;5011008;28;20103;-90
2022/08/03 08:15:12;;;;;;;6.88;1.95;;;29.50;99.90;;;;;;5024183;28;20561;-94
2022/08/03 08:17:48;;;;;;;9.05;2.13;;;29.10;99.90;;;;;;5012587;28;20513;-93
2022/08/03 08:20:26;;;;;;;8.98;2.60;;;29.50;99.90;;;;;;5010310;28;20482;-91
2022/08/03 08:22:55;;;;;;;8.07;2.00;;;29.40;99.90;;;;;;4979788;28;20124;-93
2022/08/03 08:25:21;;;;;;;5.20;2.33;;;29.40;99.90;;;;;;4979826;28;20045;-93
2022/08/03 08:27:48;;;;;;;6.88;2.10;;;28.70;99.90;;;;;;5015163;28;20045;-93
2022/08/03 08:30:16;;;;;;;9.05;2.20;;;28.20;99.90;;;;;;5005669;28;20065;-92
2022/08/03 08:32:42;;;;;;;9.45;2.35;;;27.10;99.90;;;;;;5019969;28;20485;-90
2022/08/03 08:35:11;;;;;;;9.70;1.98;;;27.70;99.90;;;;;;5021758;28;20077;-89
2022/08/03 08:37:37;;;;;;;6.22;2.30;;;28.10;99.90;;;;;;5031283;28;20056;-90
2022/08/03 08:40:04;;;;;;;8.02;2.65;;;27.50;99.90;;;;;;5002332;28;20134;-92
2022/08/03 08:42:31;;;;;;;8.38;2.45;;;27.70;99.90;;;;;;4998384;28;20049;-92
2022/08/03 08:44:56;;;;;;;12.30;2.60;;;28.20;99.90;;;;;;5015540;28;20128;-94
2022/08/03 08:47:24;;;;;;;10.05;2.58;;;28.80;99.90;;;;;;5016724;28;20128;-91
2022/08/03 08:50:00;;;;;;;10.32;2.58;;;28.50;99.90;;;;;;5015091;28;20041;-95
2022/08/03 08:52:29;;;;;;;9.85;2.20;;;29.50;99.90;;;;;;4992760;28;20037;-93
2022/08/03 08:54:59;;;;;;;7.30;2.22;;;29.10;99.90;;;;;;4974858;28;20056;-95
2022/08/03 08:57:29;;;;;;;6.45;2.22;;;29.10;99.90;;;;;;5016770;28;20132;-92
2022/08/03 08:59:55;;;;;;;8.07;2.50;;;29.40;99.90;;;;;;5011805;28;20060;-90
2022/08/03 09:02:24;;;;;;;8.88;2.40;;;29.30;99.90;;;;;;4995676;28;20458;-91
2022/08/03 09:04:50;;;;;;;8.18;2.70;;;29.60;99.90;;;;;;4997609;28;20078;-94
2022/08/03 09:07:19;;;;;;;8.60;2.30;;;29.70;99.90;;;;;;4995832;28;20486;-91
2022/08/03 09:09:45;;;;;;;10.65;2.67;;;30.10;99.90;;;;;;4976933;28;20046;-95
2022/08/03 09:12:11;;;;;;;7.63;2.80;;;30.60;99.90;;;;;;5023645;28;20056;-89
2022/08/03 09:14:36;;;;;;;9.38;2.28;;;30.30;99.90;;;;;;4999060;28;20049;-93
2022/08/03 09:17:02;;;;;;;10.32;2.95;;;30.40;99.90;;;;;;5015704;28;20084;-92
2022/08/03 09:19:30;;;;;;;7.07;2.15;;;30.70;99.90;;;;;;5015374;28;20795;-93
2022/08/03 09:22:09;;;;;;;6.30;2.50;;;30.60;99.90;;;;;;4983618;28;20049;-93
2022/08/03 09:24:35;;;;;;;6.25;2.35;;;30.70;99.90;;;;;;5016154;28;20053;-92
2022/08/03 09:27:01;;;;;;;7.15;2.50;;;31.10;99.90;;;;;;5015995;28;20045;-92
2022/08/03 09:29:34;;;;;;;6.03;2.00;;;31.10;99.90;;;;;;4982476;28;20103;-94
2022/08/03 09:32:03;;;;;;;8.27;2.70;;;31.60;99.90;;;;;;4999086;28;20058;-89
2022/08/03 09:34:29;;;;;;;8.32;2.17;;;31.40;99.90;;;;;;4999022;28;20081;-93
2022/08/03 09:36:57;;;;;;;7.22;2.50;;;31.10;99.90;;;;;;4984457;28;20183;-93
2022/08/03 09:39:30;;;;;;;8.73;2.17;;;31.10;99.90;;;;;;4983064;28;20041;-92
2022/08/03 09:42:12;;;;;;;5.55;2.20;;;31.70;99.90;;;;;;4984760;28;20445;-90
2022/08/03 09:44:43;;;;;;;8.77;2.22;;;32.20;99.90;;;;;;4999944;28;20053;-92
2022/08/03 09:47:10;;;;;;;7.68;2.30;;;32.20;99.90;;;;;;4999197;28;20378;-90
2022/08/03 09:49:40;;;;;;;4.68;2.33;;;31.80;99.90;;;;;;4982164;28;20602;-91
2022/08/03 09:52:17;;;;;;;6.88;2.45;;;31.60;99.90;;;;;;4999063;28;20485;-90
2022/08/03 09:54:43;;;;;;;7.63;2.80;;;32.40;99.90;;;;;;4983469;28;20048;-92
2022/08/03 09:57:22;;;;;;;6.85;2.92;;;31.90;99.90;;;;;;4982632;28;20061;-92
2022/08/03 09:59:48;;;;;;;6.35;2.72;;;31.80;99.90;;;;;;5015019;28;20052;-92
2022/08/03 10:02:22;;;;;;;7.32;2.50;;;31.70;99.90;;;;;;5015083;28;20425;-91
2022/08/03 10:04:49;;;;;;;5.75;2.15;;;32.20;99.90;;;;;;5030467;28;20107;-93
2022/08/03 10:07:15;;;;;;;7.20;2.30;;;31.80;99.90;;;;;;5014730;28;20049;-92
2022/08/03 10:09:52;;;;;;;6.18;2.30;;;32.60;99.90;;;;;;4965742;28;20053;-92
2022/08/03 10:12:18;;;;;;;4.38;2.30;;;32.10;99.90;;;;;;4997246;28;20056;-90
2022/08/03 10:14:45;;;;;;;6.07;2.28;;;31.90;99.90;;;;;;4981244;28;20037;-91
2022/08/03 10:17:11;;;;;;;8.68;2.78;;;32.50;99.90;;;;;;5014505;28;20056;-92
2022/08/03 10:19:37;;;;;;;9.82;2.80;;;32.30;99.90;;;;;;5030049;28;20046;-91
2022/08/03 10:22:06;;;;;;;6.40;2.30;;;31.80;99.90;;;;;;5013599;28;20128;-93
2022/08/03 10:24:34;;;;;;;5.53;2.30;;;31.50;99.90;;;;;;5013639;28;20397;-91
2022/08/03 10:27:07;;;;;;;7.55;2.20;;;31.30;99.90;;;;;;5014624;28;20128;-91
2022/08/03 10:29:37;;;;;;;;;;;32.10;99.90;;;;;;4998162;28;20053;-92
2022/08/03 10:32:07;;;;;;;8.45;2.40;;;31.80;99.90;;;;;;5013826;28;19932;-92
2022/08/03 10:34:34;;;;;;;8.00;2.25;;;33.10;99.90;;;;;;4965312;28;20045;-90
2022/08/03 10:36:59;;;;;;;9.82;3.35;;;32.00;99.90;;;;;;4992017;28;20049;-91
2022/08/03 10:39:27;;;;;;;8.10;3.45;;;31.70;99.90;;;;;;5013471;28;20041;-93
2022/08/03 10:41:54;;;;;;;6.32;2.60;;;31.10;99.90;;;;;;5013495;28;20041;-89
2022/08/03 10:44:21;;;;;;;9.85;2.88;;;31.90;99.90;;;;;;4981931;28;20075;-91
2022/08/03 10:46:47;;;;;;;6.75;2.30;;;31.70;99.90;;;;;;4965258;28;20081;-92
2022/08/03 10:49:19;;;;;;;8.23;2.70;;;31.60;99.90;;;;;;4981260;28;20482;-93
2022/08/03 10:51:46;;;;;;;5.90;2.08;;;31.80;99.90;;;;;;5013525;28;20056;-92
2022/08/03 10:54:36;;;;;;;6.93;2.60;;;31.60;99.90;;;;;;4996215;28;20462;-94
2022/08/03 10:59:49;;;;;;;9.00;2.80;;;30.80;99.90;;;;;;5029843;28;20049;-93
2022/08/03 11:02:15;;;;;;;10.82;3.28;;;30.60;99.90;;;;;;4989150;28;1191055;-93
2022/08/03 11:04:43;;;;;;;9.07;2.53;;;30.80;99.90;;;;;;5030968;28;20061;-91
2022/08/03 11:07:16;;;;;;;8.43;3.03;;;30.30;99.90;;;;;;4982681;28;20386;-93
2022/08/03 11:09:47;;;;;;;12.48;2.58;;;30.70;99.90;;;;;;5030948;28;20053;-92
2022/08/03 11:12:28;;;;;;;12.25;3.20;;;31.00;99.90;;;;;;4999554;28;20041;-92
2022/08/03 11:14:54;;;;;;;7.28;2.80;;;31.00;99.90;;;;;;5014912;28;20057;-91
2022/08/03 11:17:20;;;;;;;10.55;2.53;;;31.40;99.90;;;;;;5000121;28;20053;-90
2022/08/03 11:19:50;;;;;;;9.77;2.55;;;31.00;99.90;;;;;;4985571;28;20498;-92
2022/08/03 11:22:17;;;;;;;9.15;2.80;;;30.80;99.90;;;;;;5018877;28;20048;-93
2022/08/03 11:24:42;;;;;;;9.93;2.50;;;31.00;99.90;;;;;;4981269;28;20482;-92
2022/08/03 11:27:17;;;;;;;10.38;2.78;;;31.20;99.90;;;;;;5013837;28;20213;-91
2022/08/03 11:30:05;;;;;;;7.63;2.70;;;31.20;99.90;;;;;;5013994;28;20379;-91
2022/08/03 11:32:41;;;;;;;9.40;2.97;;;31.00;99.90;;;;;;5013872;28;20154;-91
2022/08/03 11:35:14;;;;;;;9.20;2.78;;;31.20;99.90;;;;;;5020446;28;20053;-92
2022/08/03 11:38:01;;;;;;;8.97;2.33;;;30.70;99.90;;;;;;5016875;28;20057;-92
2022/08/03 11:40:41;;;;;;;8.35;2.63;;;31.00;99.90;;;;;;5020125;28;20060;-91
2022/08/03 11:43:07;;;;;;;9.68;2.88;;;31.30;99.90;;;;;;5016813;28;20122;-92
2022/08/03 11:45:33;;;;;;;9.77;2.40;;;31.10;99.90;;;;;;5016331;28;20048;-92
2022/08/03 11:48:12;;;;;;;11.20;2.95;;;31.10;99.90;;;;;;5033632;28;20049;-91
2022/08/03 11:50:37;;;;;;;9.80;2.92;;;31.20;99.90;;;;;;4969754;28;20091;-90
2022/08/03 11:53:04;;;;;;;9.88;2.75;;;31.30;99.90;;;;;;5017273;28;20049;-89
2022/08/03 11:55:32;;;;;;;13.48;3.10;;;31.30;99.90;;;;;;5000464;28;20447;-88
2022/08/03 11:57:58;;;;;;;9.80;3.03;;;31.20;99.90;;;;;;5001071;28;20143;-92
2022/08/03 12:00:31;;;;;;;8.77;2.90;;;31.00;99.90;;;;;;4968701;28;20077;-91
2022/08/03 12:02:58;;;;;;;12.32;2.60;;;31.10;99.90;;;;;;4984316;28;20061;-91
2022/08/03 12:05:47;;;;;;;10.05;2.72;;;30.90;99.90;;;;;;5000968;28;20064;-90
2022/08/03 12:08:13;;;;;;;9.25;2.17;;;31.10;99.90;;;;;;5040443;28;20045;-90
2022/08/03 12:10:40;;;;;;;11.60;2.88;;;31.10;99.90;;;;;;5019379;28;20041;-92
2022/08/03 12:13:08;;;;;;;7.22;2.70;;;30.80;99.90;;;;;;5016712;28;20084;-91
2022/08/03 12:15:34;;;;;;;9.80;2.60;;;31.00;99.90;;;;;;5016289;28;20546;-87
2022/08/03 12:18:00;;;;;;;6.93;2.50;;;30.70;99.90;;;;;;5016148;28;20061;-90
2022/08/03 12:20:27;;;;;;;8.65;2.50;;;30.80;99.90;;;;;;5000391;28;20046;-89
2022/08/03 12:23:00;;;;;;;7.95;2.17;;;31.10;99.90;;;;;;5016134;28;20358;-90
2022/08/03 12:25:26;;;;;;;;;;;31.20;99.90;;;;;;5019046;28;20076;-88
2022/08/03 12:27:52;;;;;;;12.07;2.58;;;31.10;99.90;;;;;;5017921;28;20349;-90
2022/08/03 12:30:18;;;;;;;11.23;3.47;;;31.10;99.90;;;;;;4985913;28;20053;-90
2022/08/03 12:32:44;;;;;;;8.95;2.95;;;31.30;99.90;;;;;;4999919;28;20371;-91
2022/08/03 12:35:10;;;;;;;9.50;2.80;;;31.40;99.90;;;;;;5018052;28;20088;-91
2022/08/03 12:37:35;;;;;;;8.88;2.67;;;31.30;99.90;;;;;;4999939;28;20397;-87
2022/08/03 12:40:05;;;;;;;7.95;2.50;;;31.00;99.90;;;;;;5015831;28;20680;-90
2022/08/03 12:42:34;;;;;;;12.90;2.30;;;30.80;99.90;;;;;;5016297;28;20103;-90
2022/08/03 12:45:25;;;;;;;8.40;2.83;;;31.10;99.90;;;;;;4985109;28;20060;-90
2022/08/03 12:47:55;;;;;;;11.43;2.53;;;31.20;99.90;;;;;;5015472;28;20049;-90
2022/08/03 12:50:40;;;;;;;11.77;2.63;;;30.90;99.90;;;;;;4999708;28;20057;-90
2022/08/03 12:53:07;;;;;;;7.80;2.30;;;31.00;99.90;;;;;;4999641;28;20144;-91
2022/08/03 12:55:32;;;;;;;8.82;2.25;;;31.10;99.90;;;;;;5016099;28;20104;-92
2022/08/03 12:58:06;;;;;;;6.85;2.00;;;31.00;99.90;;;;;;4999212;28;20045;-92